sensor_id;sensor_type;location;lat;lon;timestamp;P1;durP1;ratioP1;P2;durP2;ratioP2
22176;SDS011;11254;50.098;8.726;2022-12-07T00:01:09;17.67;;;8.05;;
22176;SDS011;11254;50.098;8.726;2022-12-07T00:03:40;16.63;;;7.90;;
22176;SDS011;11254;50.098;8.726;2022-12-07T00:10:17;14.65;;;6.85;;
22176;SDS011;11254;50.098;8.726;2022-12-07T00:12:45;16.20;;;7.53;;
22176;SDS011;11254;50.098;8.726;2022-12-07T00:15:13;19.17;;;7.80;;
22176;SDS011;11254;50.098;8.726;2022-12-07T00:17:42;17.67;;;7.97;;
22176;SDS011;11254;50.098;8.726;2022-12-07T00:20:11;15.77;;;7.10;;
22176;SDS011;11254;50.098;8.726;2022-12-07T00:22:40;16.40;;;6.95;;
22176;SDS011;11254;50.098;8.726;2022-12-07T00:25:08;16.35;;;7.50;;
22176;SDS011;11254;50.098;8.726;2022-12-07T00:27:36;17.55;;;7.93;;
22176;SDS011;11254;50.098;8.726;2022-12-07T00:30:05;21.33;;;8.50;;
22176;SDS011;11254;50.098;8.726;2022-12-07T00:32:34;19.30;;;8.05;;
22176;SDS011;11254;50.098;8.726;2022-12-07T00:35:02;15.63;;;7.70;;
22176;SDS011;11254;50.098;8.726;2022-12-07T00:37:32;18.38;;;8.15;;
22176;SDS011;11254;50.098;8.726;2022-12-07T00:40:00;17.27;;;7.97;;
22176;SDS011;11254;50.098;8.726;2022-12-07T00:42:29;19.13;;;8.63;;
22176;SDS011;11254;50.098;8.726;2022-12-07T00:44:57;16.55;;;7.50;;
22176;SDS011;11254;50.098;8.726;2022-12-07T00:47:26;15.55;;;7.93;;
22176;SDS011;11254;50.098;8.726;2022-12-07T00:49:54;18.45;;;7.63;;
22176;SDS011;11254;50.098;8.726;2022-12-07T00:52:22;18.80;;;8.15;;
22176;SDS011;11254;50.098;8.726;2022-12-07T00:54:52;18.95;;;8.82;;
22176;SDS011;11254;50.098;8.726;2022-12-07T00:57:20;17.10;;;7.70;;
22176;SDS011;11254;50.098;8.726;2022-12-07T00:59:49;19.45;;;8.48;;
22176;SDS011;11254;50.098;8.726;2022-12-07T01:02:21;18.70;;;8.05;;
22176;SDS011;11254;50.098;8.726;2022-12-07T01:04:49;15.57;;;7.10;;
22176;SDS011;11254;50.098;8.726;2022-12-07T01:07:18;18.70;;;8.90;;
22176;SDS011;11254;50.098;8.726;2022-12-07T01:09:46;16.92;;;7.70;;
22176;SDS011;11254;50.098;8.726;2022-12-07T01:12:16;16.90;;;7.80;;
22176;SDS011;11254;50.098;8.726;2022-12-07T01:14:44;17.15;;;7.90;;
22176;SDS011;11254;50.098;8.726;2022-12-07T01:17:12;17.27;;;8.32;;
22176;SDS011;11254;50.098;8.726;2022-12-07T01:19:41;18.98;;;8.30;;
22176;SDS011;11254;50.098;8.726;2022-12-07T01:22:09;20.63;;;9.50;;
22176;SDS011;11254;50.098;8.726;2022-12-07T01:24:37;18.88;;;8.77;;
22176;SDS011;11254;50.098;8.726;2022-12-07T01:27:06;17.77;;;7.57;;
22176;SDS011;11254;50.098;8.726;2022-12-07T01:29:35;17.42;;;8.50;;
22176;SDS011;11254;50.098;8.726;2022-12-07T01:32:04;19.05;;;8.20;;
22176;SDS011;11254;50.098;8.726;2022-12-07T01:34:32;14.63;;;7.38;;
22176;SDS011;11254;50.098;8.726;2022-12-07T01:37:01;16.63;;;7.55;;
22176;SDS011;11254;50.098;8.726;2022-12-07T01:39:29;19.90;;;7.53;;
22176;SDS011;11254;50.098;8.726;2022-12-07T01:41:57;21.52;;;7.38;;
22176;SDS011;11254;50.098;8.726;2022-12-07T01:44:26;17.70;;;8.00;;
22176;SDS011;11254;50.098;8.726;2022-12-07T01:46:57;17.60;;;7.43;;
22176;SDS011;11254;50.098;8.726;2022-12-07T01:49:28;18.00;;;6.85;;
22176;SDS011;11254;50.098;8.726;2022-12-07T01:51:58;19.75;;;8.57;;
22176;SDS011;11254;50.098;8.726;2022-12-07T01:54:29;17.67;;;7.55;;
22176;SDS011;11254;50.098;8.726;2022-12-07T01:56:58;16.88;;;7.22;;
22176;SDS011;11254;50.098;8.726;2022-12-07T01:59:27;16.95;;;7.75;;
22176;SDS011;11254;50.098;8.726;2022-12-07T02:01:55;14.40;;;7.20;;
22176;SDS011;11254;50.098;8.726;2022-12-07T02:04:25;14.60;;;6.80;;
22176;SDS011;11254;50.098;8.726;2022-12-07T02:06:54;15.25;;;7.28;;
22176;SDS011;11254;50.098;8.726;2022-12-07T02:09:23;18.80;;;6.90;;
22176;SDS011;11254;50.098;8.726;2022-12-07T02:11:51;15.70;;;7.15;;
22176;SDS011;11254;50.098;8.726;2022-12-07T02:14:20;14.50;;;6.75;;
22176;SDS011;11254;50.098;8.726;2022-12-07T02:16:53;15.43;;;7.30;;
22176;SDS011;11254;50.098;8.726;2022-12-07T02:22:28;17.75;;;7.38;;
22176;SDS011;11254;50.098;8.726;2022-12-07T02:25:04;15.50;;;7.13;;
22176;SDS011;11254;50.098;8.726;2022-12-07T02:27:39;16.88;;;6.35;;
22176;SDS011;11254;50.098;8.726;2022-12-07T02:30:13;16.17;;;6.65;;
22176;SDS011;11254;50.098;8.726;2022-12-07T02:32:43;14.27;;;6.25;;
22176;SDS011;11254;50.098;8.726;2022-12-07T02:35:13;15.05;;;6.03;;
22176;SDS011;11254;50.098;8.726;2022-12-07T02:37:46;14.07;;;6.47;;
22176;SDS011;11254;50.098;8.726;2022-12-07T02:40:17;18.08;;;7.15;;
22176;SDS011;11254;50.098;8.726;2022-12-07T02:42:47;17.10;;;6.95;;
22176;SDS011;11254;50.098;8.726;2022-12-07T02:45:19;13.95;;;6.07;;
22176;SDS011;11254;50.098;8.726;2022-12-07T02:47:50;14.38;;;5.82;;
22176;SDS011;11254;50.098;8.726;2022-12-07T02:50:19;14.07;;;6.35;;
22176;SDS011;11254;50.098;8.726;2022-12-07T02:52:48;13.45;;;5.82;;
22176;SDS011;11254;50.098;8.726;2022-12-07T02:55:17;12.60;;;5.38;;
22176;SDS011;11254;50.098;8.726;2022-12-07T02:57:52;12.85;;;5.55;;
22176;SDS011;11254;50.098;8.726;2022-12-07T03:00:23;13.38;;;5.75;;
22176;SDS011;11254;50.098;8.726;2022-12-07T03:02:53;15.73;;;6.03;;
22176;SDS011;11254;50.098;8.726;2022-12-07T03:05:31;12.85;;;5.47;;
22176;SDS011;11254;50.098;8.726;2022-12-07T03:08:04;11.20;;;4.80;;
22176;SDS011;11254;50.098;8.726;2022-12-07T03:10:35;15.15;;;5.88;;
22176;SDS011;11254;50.098;8.726;2022-12-07T03:13:06;17.42;;;6.68;;
22176;SDS011;11254;50.098;8.726;2022-12-07T03:15:40;13.88;;;5.28;;
22176;SDS011;11254;50.098;8.726;2022-12-07T03:18:11;12.23;;;5.63;;
22176;SDS011;11254;50.098;8.726;2022-12-07T03:20:40;14.25;;;6.30;;
22176;SDS011;11254;50.098;8.726;2022-12-07T03:23:10;13.55;;;5.38;;
22176;SDS011;11254;50.098;8.726;2022-12-07T03:25:40;14.32;;;5.68;;
22176;SDS011;11254;50.098;8.726;2022-12-07T03:28:10;11.38;;;5.22;;
22176;SDS011;11254;50.098;8.726;2022-12-07T03:30:44;11.38;;;5.22;;
22176;SDS011;11254;50.098;8.726;2022-12-07T03:33:15;15.35;;;5.75;;
22176;SDS011;11254;50.098;8.726;2022-12-07T03:35:48;14.02;;;5.50;;
22176;SDS011;11254;50.098;8.726;2022-12-07T03:38:18;12.02;;;5.60;;
22176;SDS011;11254;50.098;8.726;2022-12-07T03:40:48;10.65;;;4.68;;
22176;SDS011;11254;50.098;8.726;2022-12-07T03:43:17;10.00;;;4.65;;
22176;SDS011;11254;50.098;8.726;2022-12-07T03:45:49;12.65;;;5.13;;
22176;SDS011;11254;50.098;8.726;2022-12-07T03:48:20;12.73;;;5.65;;
22176;SDS011;11254;50.098;8.726;2022-12-07T03:50:52;15.57;;;5.47;;
22176;SDS011;11254;50.098;8.726;2022-12-07T03:53:22;11.52;;;5.18;;
22176;SDS011;11254;50.098;8.726;2022-12-07T03:55:51;11.13;;;5.22;;
22176;SDS011;11254;50.098;8.726;2022-12-07T03:58:20;11.90;;;5.25;;
22176;SDS011;11254;50.098;8.726;2022-12-07T04:00:51;11.02;;;5.15;;
22176;SDS011;11254;50.098;8.726;2022-12-07T04:03:20;12.25;;;5.45;;
22176;SDS011;11254;50.098;8.726;2022-12-07T04:05:48;11.10;;;5.10;;
22176;SDS011;11254;50.098;8.726;2022-12-07T04:08:17;11.30;;;5.45;;
22176;SDS011;11254;50.098;8.726;2022-12-07T04:10:45;10.40;;;4.90;;
22176;SDS011;11254;50.098;8.726;2022-12-07T04:13:13;12.80;;;5.63;;
22176;SDS011;11254;50.098;8.726;2022-12-07T04:15:42;11.30;;;4.93;;
22176;SDS011;11254;50.098;8.726;2022-12-07T04:18:12;11.15;;;4.60;;
22176;SDS011;11254;50.098;8.726;2022-12-07T04:20:40;13.63;;;5.72;;
22176;SDS011;11254;50.098;8.726;2022-12-07T04:23:09;12.32;;;5.57;;
22176;SDS011;11254;50.098;8.726;2022-12-07T04:25:37;12.50;;;5.00;;
22176;SDS011;11254;50.098;8.726;2022-12-07T04:28:05;12.27;;;5.63;;
22176;SDS011;11254;50.098;8.726;2022-12-07T04:30:34;12.85;;;4.85;;
22176;SDS011;11254;50.098;8.726;2022-12-07T04:33:02;13.43;;;5.50;;
22176;SDS011;11254;50.098;8.726;2022-12-07T04:35:32;11.00;;;5.07;;
22176;SDS011;11254;50.098;8.726;2022-12-07T04:38:00;14.38;;;5.65;;
22176;SDS011;11254;50.098;8.726;2022-12-07T04:40:28;14.43;;;6.07;;
22176;SDS011;11254;50.098;8.726;2022-12-07T04:42:56;12.32;;;5.32;;
22176;SDS011;11254;50.098;8.726;2022-12-07T04:45:25;12.05;;;4.90;;
22176;SDS011;11254;50.098;8.726;2022-12-07T04:47:53;12.07;;;4.65;;
22176;SDS011;11254;50.098;8.726;2022-12-07T04:50:21;13.88;;;4.95;;
22176;SDS011;11254;50.098;8.726;2022-12-07T04:52:51;10.23;;;5.07;;
22176;SDS011;11254;50.098;8.726;2022-12-07T04:55:19;10.20;;;4.90;;
22176;SDS011;11254;50.098;8.726;2022-12-07T04:57:48;14.13;;;5.60;;
22176;SDS011;11254;50.098;8.726;2022-12-07T05:00:16;10.40;;;4.80;;
22176;SDS011;11254;50.098;8.726;2022-12-07T05:02:45;11.30;;;4.28;;
22176;SDS011;11254;50.098;8.726;2022-12-07T05:05:13;12.65;;;5.47;;
22176;SDS011;11254;50.098;8.726;2022-12-07T05:07:41;10.65;;;4.50;;
22176;SDS011;11254;50.098;8.726;2022-12-07T05:10:11;13.35;;;5.20;;
22176;SDS011;11254;50.098;8.726;2022-12-07T05:12:40;12.73;;;5.38;;
22176;SDS011;11254;50.098;8.726;2022-12-07T05:15:08;13.77;;;5.07;;
22176;SDS011;11254;50.098;8.726;2022-12-07T05:17:37;12.32;;;5.47;;
22176;SDS011;11254;50.098;8.726;2022-12-07T05:20:06;11.48;;;5.13;;
22176;SDS011;11254;50.098;8.726;2022-12-07T05:22:34;13.73;;;6.00;;
22176;SDS011;11254;50.098;8.726;2022-12-07T05:25:03;15.05;;;6.65;;
22176;SDS011;11254;50.098;8.726;2022-12-07T05:27:32;17.92;;;6.18;;
22176;SDS011;11254;50.098;8.726;2022-12-07T05:30:01;12.38;;;5.68;;
22176;SDS011;11254;50.098;8.726;2022-12-07T05:32:30;12.57;;;5.45;;
22176;SDS011;11254;50.098;8.726;2022-12-07T05:34:58;12.73;;;4.93;;
22176;SDS011;11254;50.098;8.726;2022-12-07T05:37:26;14.60;;;5.47;;
22176;SDS011;11254;50.098;8.726;2022-12-07T05:39:54;13.13;;;5.13;;
22176;SDS011;11254;50.098;8.726;2022-12-07T05:42:23;11.32;;;5.10;;
22176;SDS011;11254;50.098;8.726;2022-12-07T05:44:53;11.20;;;5.40;;
22176;SDS011;11254;50.098;8.726;2022-12-07T05:47:22;10.85;;;5.18;;
22176;SDS011;11254;50.098;8.726;2022-12-07T05:49:50;14.55;;;5.45;;
22176;SDS011;11254;50.098;8.726;2022-12-07T05:52:18;12.40;;;5.45;;
22176;SDS011;11254;50.098;8.726;2022-12-07T05:54:47;10.73;;;5.10;;
22176;SDS011;11254;50.098;8.726;2022-12-07T05:57:15;11.77;;;5.75;;
22176;SDS011;11254;50.098;8.726;2022-12-07T05:59:43;13.35;;;5.13;;
22176;SDS011;11254;50.098;8.726;2022-12-07T06:02:13;12.40;;;5.32;;
22176;SDS011;11254;50.098;8.726;2022-12-07T06:04:42;13.23;;;5.60;;
22176;SDS011;11254;50.098;8.726;2022-12-07T06:07:12;12.73;;;6.03;;
22176;SDS011;11254;50.098;8.726;2022-12-07T06:09:40;13.02;;;5.07;;
22176;SDS011;11254;50.098;8.726;2022-12-07T06:12:09;12.35;;;5.55;;
22176;SDS011;11254;50.098;8.726;2022-12-07T06:14:55;13.07;;;5.28;;
22176;SDS011;11254;50.098;8.726;2022-12-07T06:17:25;9.65;;;5.05;;
22176;SDS011;11254;50.098;8.726;2022-12-07T06:19:53;13.13;;;5.30;;
22176;SDS011;11254;50.098;8.726;2022-12-07T06:22:21;13.95;;;5.70;;
22176;SDS011;11254;50.098;8.726;2022-12-07T06:24:50;12.73;;;5.57;;
22176;SDS011;11254;50.098;8.726;2022-12-07T06:27:18;11.50;;;5.18;;
22176;SDS011;11254;50.098;8.726;2022-12-07T06:29:47;11.25;;;4.93;;
22176;SDS011;11254;50.098;8.726;2022-12-07T06:32:15;13.27;;;5.47;;
22176;SDS011;11254;50.098;8.726;2022-12-07T06:34:45;24.98;;;12.02;;
22176;SDS011;11254;50.098;8.726;2022-12-07T06:37:13;16.67;;;6.78;;
22176;SDS011;11254;50.098;8.726;2022-12-07T06:39:42;12.63;;;5.60;;
22176;SDS011;11254;50.098;8.726;2022-12-07T06:42:11;14.50;;;6.20;;
22176;SDS011;11254;50.098;8.726;2022-12-07T06:44:39;18.35;;;8.27;;
22176;SDS011;11254;50.098;8.726;2022-12-07T06:47:07;18.90;;;7.80;;
22176;SDS011;11254;50.098;8.726;2022-12-07T06:49:58;12.98;;;5.60;;
22176;SDS011;11254;50.098;8.726;2022-12-07T06:52:27;12.75;;;5.80;;
22176;SDS011;11254;50.098;8.726;2022-12-07T06:54:56;13.25;;;5.65;;
22176;SDS011;11254;50.098;8.726;2022-12-07T06:57:25;14.10;;;5.85;;
22176;SDS011;11254;50.098;8.726;2022-12-07T06:59:53;16.15;;;7.25;;
22176;SDS011;11254;50.098;8.726;2022-12-07T07:02:21;18.50;;;7.32;;
22176;SDS011;11254;50.098;8.726;2022-12-07T07:04:50;12.95;;;6.25;;
22176;SDS011;11254;50.098;8.726;2022-12-07T07:07:20;13.35;;;5.82;;
22176;SDS011;11254;50.098;8.726;2022-12-07T07:09:48;18.98;;;6.95;;
22176;SDS011;11254;50.098;8.726;2022-12-07T07:12:16;14.75;;;6.20;;
22176;SDS011;11254;50.098;8.726;2022-12-07T07:14:45;16.38;;;7.90;;
22176;SDS011;11254;50.098;8.726;2022-12-07T07:17:13;13.35;;;6.75;;
22176;SDS011;11254;50.098;8.726;2022-12-07T07:19:41;12.93;;;6.13;;
22176;SDS011;11254;50.098;8.726;2022-12-07T07:22:09;13.13;;;6.10;;
22176;SDS011;11254;50.098;8.726;2022-12-07T07:24:39;12.98;;;6.40;;
22176;SDS011;11254;50.098;8.726;2022-12-07T07:27:08;15.07;;;6.55;;
22176;SDS011;11254;50.098;8.726;2022-12-07T07:29:36;14.60;;;6.85;;
22176;SDS011;11254;50.098;8.726;2022-12-07T07:32:04;16.35;;;6.65;;
22176;SDS011;11254;50.098;8.726;2022-12-07T07:34:33;14.25;;;6.82;;
22176;SDS011;11254;50.098;8.726;2022-12-07T07:37:02;19.65;;;6.72;;
22176;SDS011;11254;50.098;8.726;2022-12-07T07:39:30;16.33;;;6.20;;
22176;SDS011;11254;50.098;8.726;2022-12-07T07:42:00;16.83;;;7.32;;
22176;SDS011;11254;50.098;8.726;2022-12-07T07:44:31;28.10;;;11.00;;
22176;SDS011;11254;50.098;8.726;2022-12-07T07:47:01;26.05;;;10.23;;
22176;SDS011;11254;50.098;8.726;2022-12-07T07:49:29;20.70;;;9.02;;
22176;SDS011;11254;50.098;8.726;2022-12-07T07:51:57;20.73;;;8.27;;
22176;SDS011;11254;50.098;8.726;2022-12-07T07:54:26;17.65;;;7.75;;
22176;SDS011;11254;50.098;8.726;2022-12-07T07:56:55;14.73;;;6.97;;
22176;SDS011;11254;50.098;8.726;2022-12-07T07:59:24;16.92;;;6.95;;
22176;SDS011;11254;50.098;8.726;2022-12-07T08:01:53;14.77;;;6.53;;
22176;SDS011;11254;50.098;8.726;2022-12-07T08:04:21;14.75;;;6.85;;
22176;SDS011;11254;50.098;8.726;2022-12-07T08:06:50;12.80;;;6.10;;
22176;SDS011;11254;50.098;8.726;2022-12-07T08:09:18;14.73;;;7.10;;
22176;SDS011;11254;50.098;8.726;2022-12-07T08:11:46;14.57;;;6.13;;
22176;SDS011;11254;50.098;8.726;2022-12-07T08:14:15;14.35;;;5.85;;
22176;SDS011;11254;50.098;8.726;2022-12-07T08:16:44;14.80;;;6.90;;
22176;SDS011;11254;50.098;8.726;2022-12-07T08:19:13;14.48;;;6.50;;
22176;SDS011;11254;50.098;8.726;2022-12-07T08:21:42;14.95;;;6.47;;
22176;SDS011;11254;50.098;8.726;2022-12-07T08:24:13;13.88;;;6.05;;
22176;SDS011;11254;50.098;8.726;2022-12-07T08:26:41;15.05;;;6.60;;
22176;SDS011;11254;50.098;8.726;2022-12-07T08:29:10;15.15;;;5.97;;
22176;SDS011;11254;50.098;8.726;2022-12-07T08:31:38;16.23;;;6.65;;
22176;SDS011;11254;50.098;8.726;2022-12-07T08:34:09;14.80;;;6.78;;
22176;SDS011;11254;50.098;8.726;2022-12-07T08:36:37;17.63;;;8.27;;
22176;SDS011;11254;50.098;8.726;2022-12-07T08:39:06;15.85;;;6.13;;
22176;SDS011;11254;50.098;8.726;2022-12-07T08:41:54;14.15;;;6.60;;
22176;SDS011;11254;50.098;8.726;2022-12-07T08:44:23;14.70;;;6.97;;
22176;SDS011;11254;50.098;8.726;2022-12-07T08:46:51;18.85;;;6.47;;
22176;SDS011;11254;50.098;8.726;2022-12-07T08:49:24;17.73;;;6.63;;
22176;SDS011;11254;50.098;8.726;2022-12-07T08:51:53;11.38;;;5.60;;
22176;SDS011;11254;50.098;8.726;2022-12-07T08:54:22;13.68;;;6.35;;
22176;SDS011;11254;50.098;8.726;2022-12-07T08:56:51;12.35;;;5.90;;
22176;SDS011;11254;50.098;8.726;2022-12-07T08:59:25;10.73;;;5.72;;
22176;SDS011;11254;50.098;8.726;2022-12-07T09:01:53;13.68;;;6.20;;
22176;SDS011;11254;50.098;8.726;2022-12-07T09:04:27;11.70;;;5.65;;
22176;SDS011;11254;50.098;8.726;2022-12-07T09:06:58;10.85;;;5.40;;
22176;SDS011;11254;50.098;8.726;2022-12-07T09:09:33;9.52;;;5.10;;
22176;SDS011;11254;50.098;8.726;2022-12-07T09:12:04;11.40;;;5.28;;
22176;SDS011;11254;50.098;8.726;2022-12-07T09:14:33;10.88;;;4.85;;
22176;SDS011;11254;50.098;8.726;2022-12-07T09:17:05;12.05;;;5.03;;
22176;SDS011;11254;50.098;8.726;2022-12-07T09:19:35;11.02;;;5.22;;
22176;SDS011;11254;50.098;8.726;2022-12-07T09:22:04;10.60;;;5.30;;
22176;SDS011;11254;50.098;8.726;2022-12-07T09:24:33;12.93;;;4.90;;
22176;SDS011;11254;50.098;8.726;2022-12-07T09:27:02;11.95;;;5.10;;
22176;SDS011;11254;50.098;8.726;2022-12-07T09:29:30;9.77;;;4.97;;
22176;SDS011;11254;50.098;8.726;2022-12-07T09:31:59;11.80;;;5.40;;
22176;SDS011;11254;50.098;8.726;2022-12-07T09:34:33;12.25;;;5.22;;
22176;SDS011;11254;50.098;8.726;2022-12-07T09:37:04;13.20;;;6.38;;
22176;SDS011;11254;50.098;8.726;2022-12-07T09:39:32;15.05;;;7.55;;
22176;SDS011;11254;50.098;8.726;2022-12-07T09:42:03;12.20;;;6.22;;
22176;SDS011;11254;50.098;8.726;2022-12-07T09:44:32;15.00;;;6.05;;
22176;SDS011;11254;50.098;8.726;2022-12-07T09:47:01;11.23;;;5.80;;
22176;SDS011;11254;50.098;8.726;2022-12-07T09:49:30;12.63;;;5.75;;
22176;SDS011;11254;50.098;8.726;2022-12-07T09:52:00;13.18;;;6.35;;
22176;SDS011;11254;50.098;8.726;2022-12-07T09:54:30;12.25;;;5.55;;
22176;SDS011;11254;50.098;8.726;2022-12-07T09:56:58;11.35;;;5.03;;
22176;SDS011;11254;50.098;8.726;2022-12-07T09:59:27;11.40;;;5.38;;
22176;SDS011;11254;50.098;8.726;2022-12-07T10:02:19;10.48;;;4.60;;
22176;SDS011;11254;50.098;8.726;2022-12-07T10:04:52;13.02;;;6.13;;
22176;SDS011;11254;50.098;8.726;2022-12-07T10:07:22;10.32;;;4.50;;
22176;SDS011;11254;50.098;8.726;2022-12-07T10:09:52;10.55;;;4.22;;
22176;SDS011;11254;50.098;8.726;2022-12-07T10:12:20;9.70;;;4.70;;
22176;SDS011;11254;50.098;8.726;2022-12-07T10:14:53;9.55;;;4.43;;
22176;SDS011;11254;50.098;8.726;2022-12-07T10:17:47;10.68;;;4.57;;
22176;SDS011;11254;50.098;8.726;2022-12-07T10:20:18;13.32;;;6.32;;
22176;SDS011;11254;50.098;8.726;2022-12-07T10:22:57;11.68;;;4.82;;
22176;SDS011;11254;50.098;8.726;2022-12-07T10:25:28;8.18;;;4.35;;
22176;SDS011;11254;50.098;8.726;2022-12-07T10:28:02;8.13;;;4.25;;
22176;SDS011;11254;50.098;8.726;2022-12-07T10:30:31;8.10;;;4.00;;
22176;SDS011;11254;50.098;8.726;2022-12-07T10:32:59;7.45;;;3.90;;
22176;SDS011;11254;50.098;8.726;2022-12-07T10:35:28;7.97;;;4.05;;
22176;SDS011;11254;50.098;8.726;2022-12-07T10:37:58;8.95;;;4.10;;
22176;SDS011;11254;50.098;8.726;2022-12-07T10:40:29;8.70;;;3.70;;
22176;SDS011;11254;50.098;8.726;2022-12-07T10:43:05;8.63;;;4.22;;
22176;SDS011;11254;50.098;8.726;2022-12-07T10:45:34;8.30;;;4.32;;
22176;SDS011;11254;50.098;8.726;2022-12-07T10:48:18;9.70;;;4.38;;
22176;SDS011;11254;50.098;8.726;2022-12-07T10:50:53;7.05;;;3.65;;
22176;SDS011;11254;50.098;8.726;2022-12-07T10:53:28;9.05;;;3.28;;
22176;SDS011;11254;50.098;8.726;2022-12-07T10:56:14;7.13;;;2.88;;
22176;SDS011;11254;50.098;8.726;2022-12-07T10:58:51;8.10;;;2.70;;
22176;SDS011;11254;50.098;8.726;2022-12-07T11:01:23;6.63;;;2.60;;
22176;SDS011;11254;50.098;8.726;2022-12-07T11:06:52;4.75;;;1.90;;
22176;SDS011;11254;50.098;8.726;2022-12-07T11:09:28;6.65;;;2.28;;
22176;SDS011;11254;50.098;8.726;2022-12-07T11:12:24;6.63;;;2.17;;
22176;SDS011;11254;50.098;8.726;2022-12-07T11:14:56;5.55;;;1.88;;
22176;SDS011;11254;50.098;8.726;2022-12-07T11:17:29;6.25;;;2.15;;
22176;SDS011;11254;50.098;8.726;2022-12-07T11:20:02;6.90;;;3.00;;
22176;SDS011;11254;50.098;8.726;2022-12-07T11:22:35;6.10;;;2.60;;
22176;SDS011;11254;50.098;8.726;2022-12-07T11:25:13;7.00;;;2.40;;
22176;SDS011;11254;50.098;8.726;2022-12-07T11:27:46;7.32;;;2.35;;
22176;SDS011;11254;50.098;8.726;2022-12-07T11:30:16;5.85;;;2.30;;
22176;SDS011;11254;50.098;8.726;2022-12-07T11:33:00;5.22;;;2.20;;
22176;SDS011;11254;50.098;8.726;2022-12-07T11:35:36;7.35;;;2.45;;
22176;SDS011;11254;50.098;8.726;2022-12-07T11:38:08;6.80;;;2.08;;
22176;SDS011;11254;50.098;8.726;2022-12-07T11:40:38;7.32;;;2.25;;
22176;SDS011;11254;50.098;8.726;2022-12-07T11:43:13;5.22;;;2.25;;
22176;SDS011;11254;50.098;8.726;2022-12-07T11:45:44;11.23;;;4.03;;
22176;SDS011;11254;50.098;8.726;2022-12-07T11:48:15;6.93;;;3.03;;
22176;SDS011;11254;50.098;8.726;2022-12-07T11:50:46;8.65;;;3.10;;
22176;SDS011;11254;50.098;8.726;2022-12-07T11:53:16;8.07;;;2.65;;
22176;SDS011;11254;50.098;8.726;2022-12-07T11:55:47;5.75;;;2.08;;
22176;SDS011;11254;50.098;8.726;2022-12-07T11:58:22;6.57;;;2.47;;
22176;SDS011;11254;50.098;8.726;2022-12-07T12:00:51;8.45;;;2.08;;
22176;SDS011;11254;50.098;8.726;2022-12-07T12:03:25;10.55;;;3.45;;
22176;SDS011;11254;50.098;8.726;2022-12-07T12:05:57;5.28;;;2.28;;
22176;SDS011;11254;50.098;8.726;2022-12-07T12:08:27;5.05;;;2.05;;
22176;SDS011;11254;50.098;8.726;2022-12-07T12:11:19;7.60;;;2.60;;
22176;SDS011;11254;50.098;8.726;2022-12-07T12:13:57;6.22;;;2.30;;
22176;SDS011;11254;50.098;8.726;2022-12-07T12:16:58;6.47;;;1.90;;
22176;SDS011;11254;50.098;8.726;2022-12-07T12:19:33;4.57;;;1.92;;
22176;SDS011;11254;50.098;8.726;2022-12-07T12:22:04;7.15;;;1.75;;
22176;SDS011;11254;50.098;8.726;2022-12-07T12:24:34;6.05;;;1.90;;
22176;SDS011;11254;50.098;8.726;2022-12-07T12:27:03;4.82;;;2.05;;
22176;SDS011;11254;50.098;8.726;2022-12-07T12:29:35;7.60;;;2.17;;
22176;SDS011;11254;50.098;8.726;2022-12-07T12:32:06;9.75;;;1.90;;
22176;SDS011;11254;50.098;8.726;2022-12-07T12:34:39;6.32;;;1.63;;
22176;SDS011;11254;50.098;8.726;2022-12-07T12:42:50;6.60;;;1.90;;
22176;SDS011;11254;50.098;8.726;2022-12-07T12:45:21;7.60;;;1.80;;
22176;SDS011;11254;50.098;8.726;2022-12-07T12:47:55;4.72;;;2.03;;
22176;SDS011;11254;50.098;8.726;2022-12-07T12:50:24;7.18;;;1.70;;
22176;SDS011;11254;50.098;8.726;2022-12-07T12:52:57;4.18;;;1.75;;
22176;SDS011;11254;50.098;8.726;2022-12-07T12:55:45;4.35;;;1.55;;
22176;SDS011;11254;50.098;8.726;2022-12-07T12:58:22;6.68;;;1.70;;
22176;SDS011;11254;50.098;8.726;2022-12-07T13:03:52;6.13;;;1.70;;
22176;SDS011;11254;50.098;8.726;2022-12-07T13:06:31;5.10;;;1.45;;
22176;SDS011;11254;50.098;8.726;2022-12-07T13:09:01;4.60;;;1.90;;
22176;SDS011;11254;50.098;8.726;2022-12-07T13:11:31;3.25;;;1.50;;
22176;SDS011;11254;50.098;8.726;2022-12-07T13:16:47;4.22;;;1.73;;
22176;SDS011;11254;50.098;8.726;2022-12-07T13:22:08;4.80;;;1.85;;
22176;SDS011;11254;50.098;8.726;2022-12-07T13:24:54;5.85;;;1.70;;
22176;SDS011;11254;50.098;8.726;2022-12-07T13:27:22;6.35;;;1.88;;
22176;SDS011;11254;50.098;8.726;2022-12-07T13:29:52;5.25;;;1.83;;
22176;SDS011;11254;50.098;8.726;2022-12-07T13:32:22;3.92;;;1.67;;
22176;SDS011;11254;50.098;8.726;2022-12-07T13:39:16;5.07;;;1.40;;
22176;SDS011;11254;50.098;8.726;2022-12-07T13:41:48;7.07;;;1.70;;
22176;SDS011;11254;50.098;8.726;2022-12-07T13:44:18;3.58;;;1.48;;
22176;SDS011;11254;50.098;8.726;2022-12-07T13:46:48;6.50;;;2.00;;
22176;SDS011;11254;50.098;8.726;2022-12-07T13:49:19;4.22;;;1.73;;
22176;SDS011;11254;50.098;8.726;2022-12-07T13:51:49;8.02;;;1.60;;
22176;SDS011;11254;50.098;8.726;2022-12-07T13:54:19;5.65;;;1.55;;
22176;SDS011;11254;50.098;8.726;2022-12-07T13:56:48;4.22;;;1.52;;
22176;SDS011;11254;50.098;8.726;2022-12-07T13:59:18;3.95;;;1.40;;
22176;SDS011;11254;50.098;8.726;2022-12-07T14:01:47;4.82;;;1.25;;
22176;SDS011;11254;50.098;8.726;2022-12-07T14:04:27;4.25;;;1.40;;
22176;SDS011;11254;50.098;8.726;2022-12-07T14:06:57;4.43;;;1.70;;
22176;SDS011;11254;50.098;8.726;2022-12-07T14:09:29;4.72;;;1.42;;
22176;SDS011;11254;50.098;8.726;2022-12-07T14:11:57;4.95;;;1.60;;
22176;SDS011;11254;50.098;8.726;2022-12-07T14:14:27;4.18;;;1.70;;
22176;SDS011;11254;50.098;8.726;2022-12-07T14:17:02;6.20;;;1.70;;
22176;SDS011;11254;50.098;8.726;2022-12-07T14:19:40;5.93;;;2.22;;
22176;SDS011;11254;50.098;8.726;2022-12-07T14:22:19;4.72;;;1.60;;
22176;SDS011;11254;50.098;8.726;2022-12-07T14:24:49;5.63;;;2.00;;
22176;SDS011;11254;50.098;8.726;2022-12-07T14:27:18;5.80;;;2.00;;
22176;SDS011;11254;50.098;8.726;2022-12-07T14:29:47;5.68;;;1.75;;
22176;SDS011;11254;50.098;8.726;2022-12-07T14:32:20;6.75;;;1.73;;
22176;SDS011;11254;50.098;8.726;2022-12-07T14:34:59;4.70;;;1.92;;
22176;SDS011;11254;50.098;8.726;2022-12-07T14:37:29;3.95;;;1.52;;
22176;SDS011;11254;50.098;8.726;2022-12-07T14:39:59;3.72;;;1.50;;
22176;SDS011;11254;50.098;8.726;2022-12-07T14:42:29;5.07;;;1.80;;
22176;SDS011;11254;50.098;8.726;2022-12-07T14:44:58;7.43;;;1.73;;
22176;SDS011;11254;50.098;8.726;2022-12-07T14:47:27;4.53;;;1.80;;
22176;SDS011;11254;50.098;8.726;2022-12-07T14:50:16;6.55;;;2.03;;
22176;SDS011;11254;50.098;8.726;2022-12-07T14:52:45;5.38;;;1.98;;
22176;SDS011;11254;50.098;8.726;2022-12-07T14:55:35;7.22;;;1.70;;
22176;SDS011;11254;50.098;8.726;2022-12-07T14:58:04;5.18;;;1.65;;
22176;SDS011;11254;50.098;8.726;2022-12-07T15:00:32;7.28;;;3.08;;
22176;SDS011;11254;50.098;8.726;2022-12-07T15:03:01;5.78;;;2.35;;
22176;SDS011;11254;50.098;8.726;2022-12-07T15:05:30;3.85;;;1.33;;
22176;SDS011;11254;50.098;8.726;2022-12-07T15:08:00;3.75;;;1.25;;
22176;SDS011;11254;50.098;8.726;2022-12-07T15:10:29;5.25;;;1.65;;
22176;SDS011;11254;50.098;8.726;2022-12-07T15:13:00;5.10;;;1.70;;
22176;SDS011;11254;50.098;8.726;2022-12-07T15:15:42;6.18;;;1.83;;
22176;SDS011;11254;50.098;8.726;2022-12-07T15:18:11;6.68;;;2.65;;
22176;SDS011;11254;50.098;8.726;2022-12-07T15:20:39;8.95;;;2.83;;
22176;SDS011;11254;50.098;8.726;2022-12-07T15:23:08;5.82;;;2.78;;
22176;SDS011;11254;50.098;8.726;2022-12-07T15:25:36;9.55;;;4.30;;
22176;SDS011;11254;50.098;8.726;2022-12-07T15:28:07;11.27;;;4.85;;